Terminal Aerodrome Forecast
Issued by NWS

Home | Current Version | Previous Version | Text Only | Print | Product List | Glossary On
Versions: 1 2 3 4 5 6 7 8 9 10 11 12 13 14 15
000
FTAK31 PAJN 231128
TAFAWG
TAF
PAWG 231128Z 2312/2412 00000KT P6SM OVC070
     FM231900 21005KT P6SM FEW010 BKN050
     FM240900 00000KT 6SM BCFG SCT001 BKN040
      AMD NOT SKED=

USA.gov is the U.S. government's official web portal to all federal, state and local government web resources and services.